Flight Track Log - Related Links

Times and Time Zones

All times are in EST time to prevent confusion due to time zone crossing. See the N41WM flight status page for this flight to view local times or setup timezone preferences in your user account.

Time Position Orientation Groundspeed Altitude Reporting Facility
EST Latitude Longitude Course Direction KTS MPH feet Rate Location/Type
Sat 01:27:23 PM 41.6369 -73.8233 88° East 81 93 3,400  Level Boston Center
Sat 01:28:24 PM 41.6378 -73.7906 88° East 88 101 3,900 532 Climbing Boston Center
Sat 01:29:27 PM 41.6383 -73.7561 89° East 92 106 4,500 532 Climbing Boston Center
Sat 01:30:28 PM 41.6378 -73.7228 91° East 91 105 5,000 492 Climbing Boston Center
Sat 01:31:29 PM 41.6389 -73.6850 88° East 94 108 5,500 295 Climbing Boston Center
Sat 01:32:30 PM 41.6397 -73.6497 88° East 97 112 5,600 49 Climbing Boston Center
Sat 01:33:31 PM 41.6436 -73.6136 82° East 99 114 5,600  Level Boston Center
Sat 01:34:34 PM 41.6453 -73.5697 87° East 110 127 5,600 -53 Level Boston Center
Sat 01:35:25 PM 41.6475 -73.5347 85° East 105 121 5,500 -100 Descending Boston Center
Sat 01:35:34 PM 41.6481 -73.5325 72° East 102 117 5,500  Level Boston Center
Sat 01:35:56 PM 41.6475 -73.5147 92° East 100 115 5,500 -97 Level Boston Center
Sat 01:36:36 PM 41.6486 -73.4947 86° East 101 116 5,400 -98 Descending Boston Center
Sat 01:36:57 PM 41.6489 -73.4775 89° East 101 116 5,400 100 Level Boston Center
Sat 01:37:36 PM 41.6489 -73.4567 90° East 103 119 5,500 87 Climbing Boston Center
Sat 01:38:06 PM 41.6492 -73.4344 89° East 103 119 5,500  Level Boston Center
Sat 01:38:37 PM 41.6522 -73.4158 78° East 105 121 5,500 109 Level Boston Center
Sat 01:39:01 PM 41.6517 -73.4008 93° East 103 119 5,600 98 Climbing Boston Center
Sat 01:39:38 PM 41.6564 -73.3783 74° East 101 116 5,600  Level Boston Center
Sat 01:40:14 PM 41.6567 -73.3564 89° East 104 120 5,600  Level Boston Center
Sat 01:40:39 PM 41.6592 -73.3375 80° East 109 125 5,600 -103 Level Boston Center
Sat 01:41:12 PM 41.6603 -73.3175 86° East 105 121 5,500 -94 Descending Boston Center
Sat 01:41:43 PM 41.6636 -73.2994 76° East 108 124 5,500 -94 Level Boston Center
Sat 01:42:16 PM 41.6647 -73.2758 86° East 107 123 5,400 -100 Descending Boston Center
Sat 01:42:43 PM 41.6661 -73.2564 85° East 111 128 5,400  Level Boston Center
Sat 01:43:14 PM 41.6644 -73.2353 96° East 106 122 5,400  Level Boston Center
Sat 01:43:45 PM 41.6669 -73.2172 79° East 109 125 5,400  Level Boston Center
Sat 01:44:12 PM 41.6675 -73.1989 88° East 105 121 5,400  Level Boston Center
Sat 01:44:45 PM 41.6692 -73.1797 83° East 101 116 5,400  Level Boston Center
Sat 01:45:13 PM 41.6686 -73.1619 92° East 101 116 5,400 98 Level Boston Center
Sat 01:45:46 PM 41.6706 -73.1419 83° East 103 119 5,500  Climbing Boston Center
Sat 01:46:26 PM 41.6719 -73.1142 86° East 103 119 5,400 -98 Descending Boston Center
Sat 01:46:47 PM 41.6731 -73.1011 83° East 101 116 5,400  Level Boston Center
Sat 01:47:26 PM 41.6736 -73.0744 88° East 108 124 5,400  Level Boston Center
Sat 01:47:48 PM 41.6747 -73.0608 84° East 106 122 5,400  Level Boston Center
Sat 01:48:27 PM 41.6772 -73.0356 82° East 106 122 5,400  Level Boston Center
Sat 01:48:49 PM 41.6786 -73.0217 82° East 105 121 5,400  Level Boston Center
Sat 01:49:28 PM 41.6789 -72.9956 89° East 108 124 5,400 -190 Level Boston Center
Sat 01:49:52 PM 41.6797 -72.9817 85° East 108 124 5,200 -556 Descending Boston Center
Sat 01:50:22 PM 41.6800 -72.9586 89° East 109 125 4,900 -689 Descending Boston Center
Sat 01:50:53 PM 41.6842 -72.9369 76° East 113 130 4,500 -590 Descending Boston Center
Sat 01:51:23 PM 41.6842 -72.9169 90° East 110 127 4,300 -500 Descending Boston Center
Sat 01:51:53 PM 41.6867 -72.8992 79° East 104 120 4,000 -667 Descending Boston Center
Sat 01:52:17 PM 41.6842 -72.8853 104° East 99 114 3,700 -667 Descending Boston Center
Sat 01:52:56 PM 41.6853 -72.8622 86° East 100 115 3,300 -667 Descending Boston Center
Sat 01:53:20 PM 41.6811 -72.8467 110° East 99 114 3,000 -400 Descending Boston Center
Sat 01:53:56 PM 41.6794 -72.8239 96° East 98 113 2,900 -100 Descending Boston Center
Sat 01:54:20 PM 41.6775 -72.8108 101° East 91 105 2,900  Level Boston Center
Sat 01:54:57 PM 41.6761 -72.7894 95° East 95 109 2,900 -109 Level Boston Center
Sat 01:55:15 PM 41.6733 -72.7778 108° East 98 113 2,800 -290 Descending Boston Center
Sat 01:55:59 PM 41.6697 -72.7547 102° East 96 110 2,600 -369 Descending Boston Center
Sat 01:56:20 PM 41.6700 -72.7419 88° East 91 105 2,400 -400 Descending Boston Center
Sat 01:56:59 PM 41.6772 -72.7222 64° Northeast 93 107 2,200 -400 Descending Boston Center
Sat 01:57:35 PM 41.6856 -72.7072 53° Northeast 95 109 1,900 -600 Descending Boston Center
Sat 01:57:59 PM 41.6869 -72.6911 83° East 93 107 1,600 -571 Descending Boston Center
Sat 01:58:17 PM 41.6839 -72.6836 119° Southeast 94 108 1,500 -375 Descending Boston Center
Sat 01:59:03 PM 41.6833 -72.6589 92° East 89 102 1,200 -358 Descending Boston Center
Sat 01:59:24 PM 41.6856 -72.6525 65° Northeast 81 93 1,100 -400 Descending Boston Center
Sat 02:00:03 PM 41.7017 -72.6567 349° North 83 96 800 -600 Descending Boston Center
Sat 02:00:24 PM 41.7089 -72.6550 10° North 88 101 500 -492 Descending Boston Center
Sat 02:01:04 PM 41.7219 -72.6519 10° North 77 89 300 -180 Descending Boston Center
Sat 02:02:04 PM 41.7375 -72.6492 North 73 84 200 -100 Descending Boston Center

Login

Don't have an account? Register now (free) for customized features, flight alerts, and more!